createdAt,value
2018-09-08T00:01:53.494Z,99.90
2018-09-08T00:04:21.034Z,99.90
2018-09-08T00:06:54.294Z,99.90
2018-09-08T00:09:21.826Z,99.90
2018-09-08T00:11:49.369Z,99.90
2018-09-08T00:14:16.894Z,99.90
2018-09-08T00:16:50.138Z,99.90
2018-09-08T00:19:43.254Z,99.90
2018-09-08T00:22:16.635Z,99.90
2018-09-08T00:24:50.017Z,99.90
2018-09-08T00:27:23.296Z,99.90
2018-09-08T00:29:50.894Z,99.90
2018-09-08T00:32:19.756Z,99.90
2018-09-08T00:34:47.283Z,99.90
2018-09-08T00:37:14.795Z,99.90
2018-09-08T00:39:43.036Z,99.90
2018-09-08T00:42:11.006Z,99.90
2018-09-08T00:44:38.531Z,99.90
2018-09-08T00:47:06.060Z,99.90
2018-09-08T00:49:33.591Z,99.90
2018-09-08T00:52:01.125Z,99.90
2018-09-08T00:54:28.680Z,99.90
2018-09-08T00:56:56.221Z,99.90
2018-09-08T00:59:23.742Z,99.90
2018-09-08T01:01:51.281Z,99.90
2018-09-08T01:04:18.821Z,99.90
2018-09-08T01:06:46.339Z,99.90
2018-09-08T01:09:13.900Z,99.90
2018-09-08T01:11:41.434Z,99.90
2018-09-08T01:14:08.984Z,99.90
2018-09-08T01:16:36.520Z,99.90
2018-09-08T01:19:05.748Z,99.90
2018-09-08T01:21:33.325Z,99.90
2018-09-08T01:24:00.873Z,99.90
2018-09-08T01:26:28.432Z,99.90
2018-09-08T01:28:55.983Z,99.90
2018-09-08T01:31:23.518Z,99.90
2018-09-08T01:33:51.058Z,99.90
2018-09-08T01:36:18.747Z,99.90
2018-09-08T01:38:46.518Z,99.90
2018-09-08T01:41:14.064Z,99.90
2018-09-08T01:43:41.595Z,99.90
2018-09-08T01:46:09.126Z,99.90
2018-09-08T01:48:37.183Z,99.90
2018-09-08T01:51:04.840Z,99.90
2018-09-08T01:53:32.388Z,99.90
2018-09-08T01:56:00.057Z,99.90
2018-09-08T01:58:27.618Z,99.90
2018-09-08T02:00:55.171Z,99.90
2018-09-08T02:03:22.731Z,99.90
2018-09-08T02:05:50.294Z,99.90
2018-09-08T02:08:17.815Z,99.90
2018-09-08T02:10:45.356Z,99.90
2018-09-08T02:13:13.304Z,99.90
2018-09-08T02:15:40.841Z,99.90
2018-09-08T02:18:08.365Z,99.90
2018-09-08T02:20:35.901Z,99.90
2018-09-08T02:23:03.427Z,99.90
2018-09-08T02:25:30.973Z,99.90
2018-09-08T02:27:58.614Z,99.90
2018-09-08T02:30:26.146Z,99.90
2018-09-08T02:32:53.668Z,99.90
2018-09-08T02:35:21.208Z,99.90
2018-09-08T02:37:48.724Z,99.90
2018-09-08T02:40:16.255Z,99.90
2018-09-08T02:42:43.794Z,99.90
2018-09-08T02:45:11.355Z,99.90
2018-09-08T02:47:38.885Z,99.90
2018-09-08T02:50:32.700Z,99.90
2018-09-08T02:52:59.543Z,99.90
2018-09-08T02:55:25.978Z,99.90
2018-09-08T02:57:52.275Z,99.90
2018-09-08T03:00:18.751Z,99.90
2018-09-08T03:02:45.041Z,99.90
2018-09-08T03:05:11.337Z,99.90
2018-09-08T03:07:37.629Z,99.90
2018-09-08T03:10:03.936Z,99.90
2018-09-08T03:12:30.233Z,99.90
2018-09-08T03:14:56.530Z,99.90
2018-09-08T03:17:22.823Z,99.90
2018-09-08T03:19:49.114Z,99.90
2018-09-08T03:22:15.394Z,99.90
2018-09-08T03:24:41.695Z,99.90
2018-09-08T03:27:07.992Z,99.90
2018-09-08T03:29:34.287Z,99.90
2018-09-08T03:32:00.565Z,99.90
2018-09-08T03:34:26.858Z,99.90
2018-09-08T03:36:53.145Z,99.90
2018-09-08T03:39:19.446Z,99.90
2018-09-08T03:41:45.745Z,99.90
2018-09-08T03:44:12.041Z,99.90
2018-09-08T03:46:38.355Z,99.90
2018-09-08T03:49:04.647Z,99.90
2018-09-08T03:51:30.951Z,99.90
2018-09-08T03:53:57.258Z,99.90
2018-09-08T03:56:23.554Z,99.90
2018-09-08T03:58:49.888Z,99.90
2018-09-08T04:01:16.151Z,99.90
2018-09-08T04:03:43.678Z,99.90
2018-09-08T04:06:11.222Z,99.90
2018-09-08T04:08:38.749Z,99.90
2018-09-08T04:11:06.297Z,99.90
2018-09-08T04:13:33.794Z,99.90
2018-09-08T04:16:01.327Z,99.90
2018-09-08T04:18:28.859Z,99.90
2018-09-08T04:20:56.384Z,99.90
2018-09-08T04:23:23.912Z,99.90
2018-09-08T04:25:51.453Z,99.90
2018-09-08T04:28:18.966Z,99.90
2018-09-08T04:30:46.500Z,99.90
2018-09-08T04:33:14.008Z,99.90
2018-09-08T04:35:41.519Z,99.90
2018-09-08T04:38:09.034Z,99.90
2018-09-08T04:40:36.574Z,99.90
2018-09-08T04:43:04.144Z,99.90
2018-09-08T04:45:31.670Z,99.90
2018-09-08T04:47:59.207Z,99.90
2018-09-08T04:50:26.760Z,99.90
2018-09-08T04:52:54.296Z,99.90
2018-09-08T04:55:21.819Z,99.90
2018-09-08T04:57:49.336Z,99.90
2018-09-08T05:00:16.876Z,99.90
2018-09-08T05:02:44.397Z,99.90
2018-09-08T05:05:11.935Z,99.90
2018-09-08T05:07:39.478Z,99.90
2018-09-08T05:10:07.028Z,99.90
2018-09-08T05:12:34.538Z,99.90
2018-09-08T05:15:02.073Z,99.90
2018-09-08T05:17:29.585Z,99.90
2018-09-08T05:19:57.110Z,99.90
2018-09-08T05:22:24.669Z,99.90
2018-09-08T05:24:52.185Z,99.90
2018-09-08T05:27:19.691Z,99.90
2018-09-08T05:29:47.239Z,99.90
2018-09-08T05:32:14.757Z,99.90
2018-09-08T05:34:42.276Z,99.90
2018-09-08T05:37:09.788Z,99.90
2018-09-08T05:39:37.294Z,99.90
2018-09-08T05:42:04.863Z,99.90
2018-09-08T05:44:32.387Z,99.90
2018-09-08T05:46:59.925Z,99.90
2018-09-08T05:49:27.443Z,99.90
2018-09-08T05:51:54.947Z,99.90
2018-09-08T05:54:22.462Z,99.90
2018-09-08T05:56:50.065Z,99.90
2018-09-08T05:59:17.665Z,99.90
2018-09-08T06:01:45.175Z,99.90
2018-09-08T06:04:12.678Z,99.90
2018-09-08T06:06:40.186Z,99.90
2018-09-08T06:09:08.815Z,99.90
2018-09-08T06:11:36.345Z,99.90
2018-09-08T06:14:03.875Z,99.90
2018-09-08T06:16:31.411Z,99.90
2018-09-08T06:18:59.001Z,99.90
2018-09-08T06:21:26.593Z,99.90
2018-09-08T06:23:54.463Z,99.90
2018-09-08T06:26:22.013Z,99.90
2018-09-08T06:28:49.592Z,99.90
2018-09-08T06:31:17.147Z,99.90
2018-09-08T06:33:44.724Z,99.90
2018-09-08T06:36:12.255Z,99.90
2018-09-08T06:38:39.785Z,99.90
2018-09-08T06:41:07.325Z,99.90
2018-09-08T06:43:34.885Z,99.90
2018-09-08T06:46:02.447Z,99.90
2018-09-08T06:48:29.977Z,99.90
2018-09-08T06:50:57.511Z,99.90
2018-09-08T06:53:25.037Z,99.90
2018-09-08T06:55:52.762Z,99.90
2018-09-08T06:58:20.279Z,99.90
2018-09-08T07:00:47.827Z,99.90
2018-09-08T07:03:15.397Z,99.90
2018-09-08T07:05:42.915Z,99.90
2018-09-08T07:08:10.484Z,99.90
2018-09-08T07:10:38.039Z,99.90
2018-09-08T07:13:05.584Z,99.90
2018-09-08T07:15:33.138Z,99.90
2018-09-08T07:18:00.684Z,99.90
2018-09-08T07:20:28.217Z,99.90
2018-09-08T07:22:55.800Z,99.90
2018-09-08T07:25:23.349Z,99.90
2018-09-08T07:27:50.887Z,99.90
2018-09-08T07:30:18.427Z,99.90
2018-09-08T07:32:45.962Z,99.90
2018-09-08T07:35:13.524Z,99.90
2018-09-08T07:37:41.063Z,99.90
2018-09-08T07:40:08.611Z,99.90
2018-09-08T07:42:36.158Z,99.90
2018-09-08T07:45:03.715Z,99.90
2018-09-08T07:47:31.275Z,99.90
2018-09-08T07:49:58.861Z,99.90
2018-09-08T07:52:26.395Z,99.90
2018-09-08T07:54:53.936Z,99.90
2018-09-08T07:57:21.474Z,99.90
2018-09-08T07:59:52.549Z,99.90
2018-09-08T08:02:20.095Z,99.90
2018-09-08T08:04:47.653Z,99.90
2018-09-08T08:07:15.267Z,99.90
2018-09-08T08:09:43.965Z,99.90
2018-09-08T08:12:11.827Z,99.90
2018-09-08T08:14:39.554Z,99.90
2018-09-08T08:17:07.031Z,99.90
2018-09-08T08:19:35.225Z,99.90
2018-09-08T08:22:02.768Z,99.90
2018-09-08T08:24:30.300Z,99.90
2018-09-08T08:26:58.415Z,99.90
2018-09-08T08:29:25.911Z,99.90
2018-09-08T08:31:53.639Z,99.90
2018-09-08T08:34:21.164Z,99.90
2018-09-08T08:36:48.697Z,99.90
2018-09-08T08:41:50.647Z,99.90
2018-09-08T08:44:18.154Z,99.90
2018-09-08T08:46:45.674Z,99.90
2018-09-08T08:49:13.204Z,99.90
2018-09-08T08:51:58.268Z,99.90
2018-09-08T08:54:46.009Z,99.90
2018-09-08T08:57:13.882Z,99.90
2018-09-08T08:59:41.638Z,99.90
2018-09-08T09:02:09.170Z,99.90
2018-09-08T09:04:36.844Z,99.90
2018-09-08T09:07:05.012Z,99.90
2018-09-08T09:09:32.230Z,99.90
2018-09-08T09:11:59.768Z,99.90
2018-09-08T09:14:27.302Z,99.90
2018-09-08T09:16:54.805Z,99.90
2018-09-08T09:19:40.972Z,99.90
2018-09-08T09:22:27.494Z,99.90
2018-09-08T09:25:00.579Z,99.90
2018-09-08T09:27:28.638Z,99.90
2018-09-08T09:29:56.493Z,99.90
2018-09-08T09:32:24.025Z,99.90
2018-09-08T09:34:51.554Z,99.90
2018-09-08T09:37:19.135Z,99.90
2018-09-08T09:39:47.043Z,99.90
2018-09-08T09:42:14.571Z,99.90
2018-09-08T09:44:42.095Z,99.90
2018-09-08T09:47:09.654Z,99.90
2018-09-08T09:49:37.184Z,99.90
2018-09-08T09:52:04.761Z,99.90
2018-09-08T09:54:32.279Z,99.90
2018-09-08T09:56:59.824Z,99.90
2018-09-08T09:59:27.346Z,99.90
2018-09-08T10:02:00.635Z,99.90
2018-09-08T10:04:28.168Z,99.90
2018-09-08T10:06:55.744Z,99.90
2018-09-08T10:09:23.267Z,99.90
2018-09-08T10:11:50.797Z,99.90
2018-09-08T10:14:18.730Z,99.90
2018-09-08T10:16:46.293Z,99.90
2018-09-08T10:19:13.848Z,99.90
2018-09-08T10:21:42.079Z,99.90
2018-09-08T10:24:09.613Z,99.90
2018-09-08T10:26:37.138Z,99.90
2018-09-08T10:29:04.685Z,99.90
2018-09-08T10:31:32.258Z,99.90
2018-09-08T10:33:59.768Z,99.90
2018-09-08T10:36:27.300Z,99.90
2018-09-08T10:38:54.885Z,99.90
2018-09-08T10:41:23.007Z,99.90
2018-09-08T10:43:50.555Z,99.90
2018-09-08T10:46:18.075Z,99.90
2018-09-08T10:48:45.632Z,99.90
2018-09-08T10:51:32.735Z,99.90
2018-09-08T10:54:00.267Z,99.90
2018-09-08T10:56:27.779Z,99.90
2018-09-08T10:58:55.311Z,99.90
2018-09-08T11:01:22.885Z,99.90
2018-09-08T11:03:50.405Z,99.90
2018-09-08T11:06:17.941Z,99.90
2018-09-08T11:08:45.482Z,99.90
2018-09-08T11:11:13.020Z,99.90
2018-09-08T11:13:40.573Z,99.90
2018-09-08T11:16:08.133Z,99.90
2018-09-08T11:18:35.681Z,99.90
2018-09-08T11:21:03.234Z,99.90
2018-09-08T11:23:30.792Z,99.90
2018-09-08T11:25:58.339Z,99.90
2018-09-08T11:28:25.877Z,99.90
2018-09-08T11:30:53.429Z,99.90
2018-09-08T11:33:20.987Z,99.90
2018-09-08T11:35:48.518Z,99.90
2018-09-08T11:38:16.312Z,99.90
2018-09-08T11:40:43.644Z,99.90
2018-09-08T11:43:11.179Z,99.90
2018-09-08T11:45:38.711Z,99.90
2018-09-08T11:48:06.251Z,99.90
2018-09-08T11:50:33.805Z,99.90
2018-09-08T11:53:01.362Z,99.90
2018-09-08T11:55:28.975Z,99.90
2018-09-08T11:57:56.479Z,99.90
2018-09-08T12:00:24.051Z,99.50
2018-09-08T12:02:51.632Z,98.80
2018-09-08T12:05:19.206Z,97.90
2018-09-08T12:07:46.780Z,97.80
2018-09-08T12:10:14.354Z,97.20
2018-09-08T12:12:41.880Z,97.90
2018-09-08T12:15:09.408Z,99.40
2018-09-08T12:17:36.924Z,99.60
2018-09-08T12:20:04.515Z,99.20
2018-09-08T12:22:32.039Z,99.20
2018-09-08T12:24:59.570Z,98.70
2018-09-08T12:27:27.091Z,97.90
2018-09-08T12:29:54.630Z,97.20
2018-09-08T12:32:22.170Z,97.70
2018-09-08T12:34:49.694Z,97.90
2018-09-08T12:37:17.303Z,95.50
2018-09-08T12:39:44.786Z,94.90
2018-09-08T12:42:12.312Z,94.30
2018-09-08T12:44:39.835Z,94.00
2018-09-08T12:47:07.351Z,92.90
2018-09-08T12:49:34.886Z,91.60
2018-09-08T12:52:02.403Z,92.60
2018-09-08T12:54:30.009Z,92.90
2018-09-08T12:56:57.540Z,93.00
2018-09-08T12:59:25.098Z,93.10
2018-09-08T13:01:52.604Z,92.90
2018-09-08T13:04:20.141Z,92.40
2018-09-08T13:06:47.661Z,92.00
2018-09-08T13:09:15.197Z,91.90
2018-09-08T13:11:42.722Z,91.30
2018-09-08T13:14:10.291Z,90.50
2018-09-08T13:16:37.814Z,90.20
2018-09-08T13:19:05.342Z,90.80
2018-09-08T13:21:32.862Z,90.40
2018-09-08T13:24:00.460Z,90.00
2018-09-08T13:26:27.953Z,88.40
2018-09-08T13:28:55.499Z,88.00
2018-09-08T13:31:23.026Z,86.70
2018-09-08T13:33:50.632Z,87.10
2018-09-08T13:36:18.117Z,88.50
2018-09-08T13:38:45.651Z,87.50
2018-09-08T13:41:13.185Z,86.80
2018-09-08T13:43:40.728Z,85.00
2018-09-08T13:46:08.263Z,81.40
2018-09-08T13:48:35.811Z,82.70
2018-09-08T13:51:03.346Z,83.50
2018-09-08T13:53:30.856Z,83.90
2018-09-08T13:55:58.420Z,79.80
2018-09-08T13:58:25.951Z,81.70
2018-09-08T14:00:53.470Z,82.60
2018-09-08T14:03:20.995Z,81.20
2018-09-08T14:05:48.545Z,79.80
2018-09-08T14:08:16.700Z,82.60
2018-09-08T14:10:45.282Z,82.90
2018-09-08T14:13:12.820Z,84.80
2018-09-08T14:15:40.360Z,86.00
2018-09-08T14:18:07.893Z,79.70
2018-09-08T14:20:35.446Z,80.10
2018-09-08T14:23:02.985Z,82.70
2018-09-08T14:25:30.529Z,85.60
2018-09-08T14:27:58.049Z,86.50
2018-09-08T14:30:25.583Z,88.90
2018-09-08T14:32:53.135Z,89.80
2018-09-08T14:35:20.906Z,90.40
2018-09-08T14:37:49.468Z,88.80
2018-09-08T14:40:17.021Z,87.20
2018-09-08T14:42:44.539Z,86.60
2018-09-08T14:45:12.069Z,86.70
2018-09-08T14:47:39.695Z,83.50
2018-09-08T14:50:07.143Z,82.70
2018-09-08T14:52:34.664Z,81.80
2018-09-08T14:55:02.201Z,79.40
2018-09-08T14:57:29.725Z,77.40
2018-09-08T14:59:57.261Z,74.70
2018-09-08T15:02:24.809Z,66.00
2018-09-08T15:04:52.447Z,63.10
2018-09-08T15:07:19.996Z,60.10
2018-09-08T15:09:47.545Z,58.00
2018-09-08T15:12:15.092Z,55.00
2018-09-08T15:14:42.636Z,52.60
2018-09-08T15:17:10.185Z,50.80
2018-09-08T15:19:37.787Z,50.10
2018-09-08T15:22:05.492Z,47.90
2018-09-08T15:24:33.103Z,46.60
2018-09-08T15:27:00.597Z,46.40
2018-09-08T15:29:28.185Z,46.00
2018-09-08T15:31:55.733Z,44.90
2018-09-08T15:34:23.277Z,43.50
2018-09-08T15:36:50.847Z,43.00
2018-09-08T15:39:18.401Z,42.70
2018-09-08T15:41:45.945Z,42.80
2018-09-08T15:44:13.471Z,42.90
2018-09-08T15:46:41.019Z,42.40
2018-09-08T15:49:08.554Z,42.40
2018-09-08T15:51:36.159Z,42.50
2018-09-08T15:54:03.644Z,41.80
2018-09-08T15:56:31.151Z,42.40
2018-09-08T15:58:58.679Z,42.90
2018-09-08T16:01:26.202Z,43.30
2018-09-08T16:03:53.719Z,43.70
2018-09-08T16:06:21.261Z,43.50
2018-09-08T16:08:48.788Z,43.90
2018-09-08T16:11:16.354Z,44.30
2018-09-08T16:13:43.843Z,44.40
2018-09-08T16:16:11.369Z,45.00
2018-09-08T16:18:38.891Z,45.50
2018-09-08T16:21:06.455Z,46.40
2018-09-08T16:23:33.962Z,45.50
2018-09-08T16:26:01.620Z,45.90
2018-09-08T16:28:29.196Z,46.30
2018-09-08T16:30:56.680Z,46.40
2018-09-08T16:33:24.179Z,46.70
2018-09-08T16:35:51.690Z,47.00
2018-09-08T16:38:19.191Z,47.20
2018-09-08T16:40:46.690Z,47.50
2018-09-08T16:43:14.195Z,47.90
2018-09-08T16:45:41.763Z,48.90
2018-09-08T16:48:09.304Z,49.30
2018-09-08T16:50:36.845Z,49.60
2018-09-08T16:53:05.100Z,50.10
2018-09-08T16:55:32.637Z,50.60
2018-09-08T16:58:00.220Z,51.10
2018-09-08T17:00:29.788Z,51.60
2018-09-08T17:02:57.262Z,52.30
2018-09-08T17:05:24.844Z,52.80
2018-09-08T17:07:52.325Z,53.30
2018-09-08T17:10:19.867Z,53.90
2018-09-08T17:12:47.400Z,54.90
2018-09-08T17:15:14.943Z,55.50
2018-09-08T17:17:42.501Z,56.80
2018-09-08T17:20:10.069Z,56.90
2018-09-08T17:22:37.599Z,57.50
2018-09-08T17:25:05.161Z,58.10
2018-09-08T17:27:32.743Z,58.70
2018-09-08T17:30:00.278Z,59.30
2018-09-08T17:32:27.847Z,59.80
2018-09-08T17:34:55.383Z,60.40
2018-09-08T17:37:22.929Z,61.00
2018-09-08T17:39:50.485Z,61.70
2018-09-08T17:42:18.052Z,62.50
2018-09-08T17:44:58.875Z,63.10
2018-09-08T17:47:26.436Z,63.70
2018-09-08T17:49:53.962Z,64.10
2018-09-08T17:52:21.503Z,64.60
2018-09-08T17:54:49.033Z,65.00
2018-09-08T17:57:16.618Z,65.40
2018-09-08T17:59:50.297Z,65.80
2018-09-08T18:02:17.939Z,66.40
2018-09-08T18:04:49.939Z,66.70
2018-09-08T18:07:17.883Z,67.10
2018-09-08T18:09:45.951Z,67.80
2018-09-08T18:12:13.512Z,68.40
2018-09-08T18:14:41.267Z,68.90
2018-09-08T18:17:08.811Z,69.10
2018-09-08T18:19:36.602Z,69.50
2018-09-08T18:22:04.153Z,70.00
2018-09-08T18:24:31.680Z,70.50
2018-09-08T18:26:59.206Z,70.90
2018-09-08T18:29:26.746Z,70.90
2018-09-08T18:31:54.269Z,71.00
2018-09-08T18:34:21.806Z,71.40
2018-09-08T18:36:49.357Z,71.80
2018-09-08T18:39:16.882Z,72.20
2018-09-08T18:41:44.553Z,72.50
2018-09-08T18:44:12.066Z,73.00
2018-09-08T18:46:39.592Z,73.30
2018-09-08T18:49:07.116Z,73.40
2018-09-08T18:51:34.645Z,73.80
2018-09-08T18:54:02.176Z,74.30
2018-09-08T18:56:29.692Z,74.50
2018-09-08T18:58:57.211Z,74.60
2018-09-08T19:01:24.752Z,74.80
2018-09-08T19:03:52.280Z,75.20
2018-09-08T19:06:19.809Z,75.80
2018-09-08T19:08:47.364Z,76.90
2018-09-08T19:11:15.009Z,76.90
2018-09-08T19:13:43.231Z,77.20
2018-09-08T19:16:10.778Z,77.20
2018-09-08T19:18:38.360Z,77.40
2018-09-08T19:21:05.924Z,77.30
2018-09-08T19:23:33.485Z,77.40
2018-09-08T19:26:01.029Z,77.60
2018-09-08T19:28:28.582Z,77.60
2018-09-08T19:30:56.115Z,77.70
2018-09-08T19:33:23.643Z,77.80
2018-09-08T19:35:51.170Z,78.10
2018-09-08T19:38:18.705Z,78.40
2018-09-08T19:40:47.203Z,79.20
2018-09-08T19:43:14.747Z,79.80
2018-09-08T19:45:42.280Z,80.10
2018-09-08T19:48:14.421Z,80.40
2018-09-08T19:50:41.969Z,80.60
2018-09-08T19:53:15.420Z,81.00
2018-09-08T19:55:42.960Z,81.20
2018-09-08T19:58:16.293Z,81.20
2018-09-08T20:00:43.962Z,81.10
2018-09-08T20:03:11.508Z,81.20
2018-09-08T20:05:39.052Z,81.40
2018-09-08T20:08:06.579Z,81.70
2018-09-08T20:10:34.108Z,82.20
2018-09-08T20:13:01.635Z,82.80
2018-09-08T20:15:29.258Z,83.20
2018-09-08T20:17:56.848Z,83.20
2018-09-08T20:20:24.367Z,82.90
2018-09-08T20:23:04.297Z,82.80
2018-09-08T20:25:31.811Z,83.00
2018-09-08T20:27:59.315Z,83.20
2018-09-08T20:30:26.857Z,83.50
2018-09-08T20:33:08.769Z,84.20
2018-09-08T20:35:36.291Z,84.60
2018-09-08T20:38:25.819Z,85.40
2018-09-08T20:40:53.332Z,85.80
2018-09-08T20:43:20.858Z,86.00
2018-09-08T20:45:48.402Z,86.00
2018-09-08T20:48:25.983Z,86.30
2018-09-08T20:50:53.533Z,87.00
2018-09-08T20:53:21.065Z,87.10
2018-09-08T20:55:48.625Z,87.30
2018-09-08T20:58:16.139Z,87.50
2018-09-08T21:00:43.717Z,87.80
2018-09-08T21:03:11.255Z,88.20
2018-09-08T21:05:38.756Z,88.40
2018-09-08T21:08:06.336Z,88.60
2018-09-08T21:10:33.859Z,88.80
2018-09-08T21:13:01.453Z,89.00
2018-09-08T21:15:28.962Z,89.40
2018-09-08T21:17:56.490Z,89.80
2018-09-08T21:20:24.025Z,90.00
2018-09-08T21:22:51.592Z,90.20
2018-09-08T21:25:19.142Z,90.20
2018-09-08T21:27:46.751Z,90.30
2018-09-08T21:30:22.738Z,90.30
2018-09-08T21:32:50.284Z,90.20
2018-09-08T21:35:17.835Z,90.20
2018-09-08T21:37:45.369Z,90.20
2018-09-08T21:40:12.910Z,90.30
2018-09-08T21:42:40.466Z,90.20
2018-09-08T21:45:08.003Z,90.20
2018-09-08T21:47:35.564Z,90.20
2018-09-08T21:50:03.120Z,90.30
2018-09-08T21:52:30.666Z,90.40
2018-09-08T21:54:58.212Z,90.50
2018-09-08T21:57:31.653Z,90.60
2018-09-08T21:59:59.192Z,90.50
2018-09-08T22:02:26.735Z,90.70
2018-09-08T22:05:26.088Z,90.30
2018-09-08T22:07:53.638Z,90.30
2018-09-08T22:10:21.187Z,90.40
2018-09-08T22:12:48.730Z,90.40
2018-09-08T22:15:16.262Z,90.60
2018-09-08T22:17:43.817Z,90.60
2018-09-08T22:20:11.364Z,90.60
2018-09-08T22:22:38.899Z,90.60
2018-09-08T22:25:06.493Z,90.70
2018-09-08T22:27:34.015Z,90.80
2018-09-08T22:30:01.558Z,90.80
2018-09-08T22:32:29.094Z,90.90
2018-09-08T22:34:56.634Z,90.90
2018-09-08T22:37:24.204Z,91.10
2018-09-08T22:39:51.740Z,91.10
2018-09-08T22:42:19.273Z,91.20
2018-09-08T22:44:46.818Z,91.30
2018-09-08T22:47:14.362Z,91.40
2018-09-08T22:49:41.891Z,91.40
2018-09-08T22:52:09.453Z,91.50
2018-09-08T22:54:36.982Z,91.50
2018-09-08T22:57:04.539Z,91.60
2018-09-08T22:59:32.107Z,91.70
2018-09-08T23:01:59.676Z,91.80
2018-09-08T23:04:27.242Z,91.90
2018-09-08T23:06:54.774Z,92.00
2018-09-08T23:09:22.331Z,92.10
2018-09-08T23:11:49.878Z,92.20
2018-09-08T23:14:17.428Z,92.20
2018-09-08T23:16:44.947Z,92.40
2018-09-08T23:19:12.498Z,92.50
2018-09-08T23:21:40.042Z,92.60
2018-09-08T23:24:07.579Z,92.80
2018-09-08T23:26:35.114Z,93.10
2018-09-08T23:29:02.665Z,93.30
2018-09-08T23:31:30.194Z,93.30
2018-09-08T23:33:57.723Z,93.50
2018-09-08T23:36:25.244Z,93.60
2018-09-08T23:38:52.796Z,93.70
2018-09-08T23:41:20.329Z,93.80
2018-09-08T23:43:47.866Z,94.00
2018-09-08T23:46:15.391Z,94.10
2018-09-08T23:48:42.944Z,94.20
2018-09-08T23:51:10.491Z,94.30
2018-09-08T23:53:38.045Z,94.40
2018-09-08T23:56:05.604Z,94.50
2018-09-08T23:58:33.157Z,94.60
